createdAt,value
2023-02-08T00:01:00.816Z,39.20
2023-02-08T00:02:04.043Z,36.45
2023-02-08T00:03:07.774Z,34.20
2023-02-08T00:04:10.765Z,30.70
2023-02-08T00:05:13.772Z,34.40
2023-02-08T00:06:17.410Z,33.15
2023-02-08T00:07:19.891Z,35.55
2023-02-08T00:08:22.414Z,37.50
2023-02-08T00:09:25.177Z,32.75
2023-02-08T00:10:28.420Z,38.92
2023-02-08T00:11:31.063Z,33.53
2023-02-08T00:12:34.542Z,30.33
2023-02-08T00:13:39.777Z,31.58
2023-02-08T00:14:43.785Z,34.42
2023-02-08T00:15:46.963Z,30.58
2023-02-08T00:16:49.671Z,39.25
2023-02-08T00:17:52.481Z,32.50
2023-02-08T00:18:56.344Z,32.65
2023-02-08T00:19:59.154Z,32.08
2023-02-08T00:21:01.839Z,34.47
2023-02-08T00:22:04.318Z,32.78
2023-02-08T00:23:07.253Z,35.17
2023-02-08T00:24:10.014Z,40.13
2023-02-08T00:25:12.535Z,35.45
2023-02-08T00:26:16.251Z,44.50
2023-02-08T00:27:19.245Z,40.40
2023-02-08T00:28:22.126Z,41.13
2023-02-08T00:29:24.645Z,32.95
2023-02-08T00:30:27.167Z,33.65
2023-02-08T00:31:29.759Z,31.92
2023-02-08T00:32:32.458Z,37.67
2023-02-08T00:33:35.062Z,35.13
2023-02-08T00:34:38.812Z,32.53
2023-02-08T00:35:42.433Z,33.88
2023-02-08T00:36:44.930Z,36.95
2023-02-08T00:37:48.047Z,29.70
2023-02-08T00:38:50.665Z,39.97
2023-02-08T00:39:53.206Z,34.90
2023-02-08T00:40:55.846Z,39.53
2023-02-08T00:42:00.049Z,34.53
2023-02-08T00:43:03.049Z,38.05
2023-02-08T00:44:05.691Z,38.40
2023-02-08T00:45:08.791Z,35.15
2023-02-08T00:46:11.692Z,36.03
2023-02-08T00:47:14.450Z,29.95
2023-02-08T00:48:16.973Z,30.88
2023-02-08T00:49:19.611Z,31.70
2023-02-08T00:50:22.261Z,30.92
2023-02-08T00:51:25.018Z,32.72
2023-02-08T00:52:28.616Z,29.40
2023-02-08T00:53:31.856Z,30.50
2023-02-08T00:54:34.381Z,27.70
2023-02-08T00:55:36.898Z,35.67
2023-02-08T00:56:40.034Z,32.72
2023-02-08T00:57:42.661Z,32.72
2023-02-08T00:58:47.710Z,34.20
2023-02-08T00:59:51.029Z,33.92
2023-02-08T01:00:54.472Z,31.27
2023-02-08T01:01:57.976Z,34.80
2023-02-08T01:03:02.409Z,33.47
2023-02-08T01:04:05.715Z,31.75
2023-02-08T01:05:08.464Z,32.30
2023-02-08T01:06:14.350Z,34.08
2023-02-08T01:07:17.227Z,28.70
2023-02-08T01:08:21.214Z,25.17
2023-02-08T01:09:24.912Z,30.23
2023-02-08T01:10:27.556Z,31.63
2023-02-08T01:11:30.192Z,29.95
2023-02-08T01:12:32.959Z,34.15
2023-02-08T01:13:37.040Z,31.15
2023-02-08T01:14:40.427Z,32.60
2023-02-08T01:15:43.886Z,28.52
2023-02-08T01:16:46.646Z,38.30
2023-02-08T01:17:57.088Z,30.95
2023-02-08T01:19:01.535Z,35.50
2023-02-08T01:20:04.286Z,34.22
2023-02-08T01:21:12.327Z,31.33
2023-02-08T01:22:14.872Z,35.50
2023-02-08T01:23:17.614Z,28.75
2023-02-08T01:24:20.283Z,33.95
2023-02-08T01:25:23.149Z,29.73
2023-02-08T01:26:26.384Z,25.40
2023-02-08T01:27:29.140Z,29.15
2023-02-08T01:28:32.380Z,29.80
2023-02-08T01:29:35.507Z,30.70
2023-02-08T01:30:38.990Z,31.48
2023-02-08T01:31:44.063Z,38.03
2023-02-08T01:32:47.147Z,31.35
2023-02-08T01:33:50.634Z,33.72
2023-02-08T01:34:53.751Z,31.73
2023-02-08T01:35:56.874Z,28.27
2023-02-08T01:37:00.010Z,29.27
2023-02-08T01:38:03.113Z,29.08
2023-02-08T01:39:08.761Z,32.90
2023-02-08T01:40:12.240Z,35.42
2023-02-08T01:41:19.439Z,33.58
2023-02-08T01:42:22.684Z,30.10
2023-02-08T01:43:32.651Z,33.75
2023-02-08T01:45:30.300Z,28.88
2023-02-08T01:46:36.141Z,28.65
2023-02-08T01:47:40.574Z,27.88
2023-02-08T01:48:43.696Z,26.38
2023-02-08T01:49:46.815Z,25.45
2023-02-08T01:51:00.616Z,27.13
2023-02-08T01:52:20.094Z,29.35
2023-02-08T01:53:26.300Z,26.35
2023-02-08T01:54:33.741Z,27.00
2023-02-08T01:55:43.589Z,31.00
2023-02-08T01:56:48.386Z,28.27
2023-02-08T01:57:55.354Z,27.50
2023-02-08T01:59:02.430Z,30.60
2023-02-08T02:00:12.875Z,27.77
2023-02-08T02:01:19.142Z,29.17
2023-02-08T02:02:24.046Z,32.78
2023-02-08T02:03:27.998Z,32.80
2023-02-08T02:04:31.359Z,28.10
2023-02-08T02:05:41.800Z,27.38
2023-02-08T02:06:49.844Z,27.10
2023-02-08T02:07:55.723Z,32.65
2023-02-08T02:09:10.366Z,31.20
2023-02-08T02:10:27.288Z,27.63
2023-02-08T02:11:29.933Z,25.27
2023-02-08T02:12:34.249Z,27.23
2023-02-08T02:13:38.098Z,32.15
2023-02-08T02:14:41.935Z,33.83
2023-02-08T02:15:45.907Z,30.13
2023-02-08T02:16:48.852Z,29.45
2023-02-08T02:17:51.590Z,28.25
2023-02-08T02:18:54.433Z,31.15
2023-02-08T02:20:05.948Z,28.73
2023-02-08T02:21:21.671Z,28.67
2023-02-08T02:23:05.586Z,29.23
2023-02-08T02:24:23.277Z,31.35
2023-02-08T02:26:23.761Z,26.63
2023-02-08T02:27:51.821Z,23.35
2023-02-08T02:29:00.239Z,27.45
2023-02-08T02:30:24.221Z,25.50
2023-02-08T02:31:48.145Z,28.33
2023-02-08T02:33:16.087Z,28.00
2023-02-08T02:35:02.994Z,29.13
2023-02-08T02:36:35.650Z,21.60
2023-02-08T02:38:06.002Z,23.45
2023-02-08T02:39:35.651Z,27.02
2023-02-08T02:40:58.086Z,26.50
2023-02-08T02:42:31.573Z,31.85
2023-02-08T02:43:52.206Z,27.98
2023-02-08T02:45:37.236Z,29.98
2023-02-08T02:46:43.571Z,21.88
2023-02-08T02:47:56.187Z,24.02
2023-02-08T02:49:06.375Z,23.00
2023-02-08T02:50:40.975Z,23.55
2023-02-08T02:51:54.504Z,31.90
2023-02-08T02:53:11.914Z,28.13
2023-02-08T02:54:17.782Z,26.75
2023-02-08T02:55:23.902Z,26.83
2023-02-08T02:56:47.899Z,20.08
2023-02-08T02:57:53.809Z,25.65
2023-02-08T02:59:02.550Z,29.10
2023-02-08T03:00:11.185Z,28.73
2023-02-08T03:01:14.097Z,31.88
2023-02-08T03:02:16.831Z,25.35
2023-02-08T03:03:22.953Z,27.80
2023-02-08T03:04:34.325Z,34.63
2023-02-08T03:05:36.994Z,34.53
2023-02-08T03:07:09.874Z,27.02
2023-02-08T03:08:26.083Z,27.80
2023-02-08T03:09:36.277Z,30.45
2023-02-08T03:10:42.081Z,31.17
2023-02-08T03:12:14.925Z,28.55
2023-02-08T03:13:46.244Z,32.47
2023-02-08T03:15:30.408Z,27.95
2023-02-08T03:16:58.291Z,24.88
2023-02-08T03:18:00.653Z,31.23
2023-02-08T03:19:27.648Z,28.20
2023-02-08T03:20:34.252Z,26.00
2023-02-08T03:21:58.746Z,30.58
2023-02-08T03:23:24.301Z,30.30
2023-02-08T03:24:40.501Z,28.15
2023-02-08T03:26:11.270Z,28.95
2023-02-08T03:27:18.661Z,26.55
2023-02-08T03:28:56.960Z,31.95
2023-02-08T03:30:34.318Z,24.75
2023-02-08T03:31:51.096Z,31.13
2023-02-08T03:33:33.208Z,31.52
2023-02-08T03:34:52.035Z,25.83
2023-02-08T03:36:13.637Z,30.58
2023-02-08T03:37:24.203Z,26.48
2023-02-08T03:38:38.137Z,21.65
2023-02-08T03:39:43.593Z,29.63
2023-02-08T03:40:50.248Z,29.70
2023-02-08T03:42:00.327Z,25.92
2023-02-08T03:43:11.850Z,26.73
2023-02-08T03:44:24.215Z,26.90
2023-02-08T03:45:39.100Z,30.25
2023-02-08T03:46:47.975Z,27.25
2023-02-08T03:47:54.337Z,27.15
2023-02-08T03:49:04.423Z,28.67
2023-02-08T03:50:11.863Z,30.88
2023-02-08T03:51:17.386Z,28.73
2023-02-08T03:52:23.142Z,33.63
2023-02-08T03:53:28.185Z,32.08
2023-02-08T03:54:36.108Z,28.70
2023-02-08T03:55:41.267Z,33.20
2023-02-08T03:56:52.912Z,30.98
2023-02-08T03:58:08.992Z,28.58
2023-02-08T03:59:19.434Z,29.27
2023-02-08T04:00:23.874Z,23.40
2023-02-08T04:01:32.703Z,29.70
2023-02-08T04:02:41.575Z,30.42
2023-02-08T04:03:50.518Z,30.75
2023-02-08T04:04:54.602Z,28.80
2023-02-08T04:05:57.844Z,32.08
2023-02-08T04:07:01.564Z,25.38
2023-02-08T04:08:04.689Z,29.40
2023-02-08T04:09:08.048Z,30.98
2023-02-08T04:10:11.292Z,26.00
2023-02-08T04:11:14.893Z,28.30
2023-02-08T04:12:18.256Z,33.42
2023-02-08T04:13:21.253Z,28.10
2023-02-08T04:14:24.018Z,27.65
2023-02-08T04:15:27.742Z,24.98
2023-02-08T04:16:30.504Z,30.08
2023-02-08T04:17:33.147Z,30.42
2023-02-08T04:18:35.904Z,28.52
2023-02-08T04:19:39.025Z,29.33
2023-02-08T04:20:42.023Z,29.45
2023-02-08T04:21:44.682Z,25.98
2023-02-08T04:22:47.428Z,27.60
2023-02-08T04:23:50.087Z,33.15
2023-02-08T04:24:52.646Z,32.25
2023-02-08T04:25:55.280Z,32.40
2023-02-08T04:26:57.888Z,30.00
2023-02-08T04:28:00.629Z,33.55
2023-02-08T04:29:03.416Z,27.00
2023-02-08T04:30:06.207Z,29.25
2023-02-08T04:31:08.952Z,36.65
2023-02-08T04:32:12.053Z,31.58
2023-02-08T04:33:15.168Z,33.00
2023-02-08T04:34:17.864Z,30.98
2023-02-08T04:35:20.572Z,30.27
2023-02-08T04:36:23.253Z,32.55
2023-02-08T04:37:26.013Z,29.38
2023-02-08T04:38:28.547Z,33.45
2023-02-08T04:39:31.054Z,33.03
2023-02-08T04:40:33.575Z,30.88
2023-02-08T04:41:36.228Z,25.50
2023-02-08T04:42:38.825Z,26.40
2023-02-08T04:43:41.347Z,32.13
2023-02-08T04:44:43.779Z,25.08
2023-02-08T04:45:46.298Z,32.78
2023-02-08T04:46:48.939Z,31.98
2023-02-08T04:47:51.467Z,34.13
2023-02-08T04:48:53.980Z,31.05
2023-02-08T04:49:56.623Z,30.00
2023-02-08T04:50:59.501Z,26.13
2023-02-08T04:52:02.021Z,27.35
2023-02-08T04:53:04.545Z,28.13
2023-02-08T04:54:07.304Z,27.85
2023-02-08T04:55:09.832Z,27.27
2023-02-08T04:56:12.347Z,32.05
2023-02-08T04:57:15.113Z,26.58
2023-02-08T04:58:18.227Z,32.10
2023-02-08T04:59:20.872Z,30.35
2023-02-08T05:00:23.633Z,24.90
2023-02-08T05:01:26.313Z,30.55
2023-02-08T05:02:28.792Z,28.00
2023-02-08T05:03:31.312Z,29.45
2023-02-08T05:04:34.073Z,30.40
2023-02-08T05:05:36.710Z,28.85
2023-02-08T05:06:39.230Z,32.03
2023-02-08T05:07:41.753Z,31.30
2023-02-08T05:08:44.392Z,29.40
2023-02-08T05:09:46.920Z,40.33
2023-02-08T05:10:49.324Z,25.45
2023-02-08T05:11:51.956Z,30.55
2023-02-08T05:12:54.473Z,35.42
2023-02-08T05:13:56.997Z,32.58
2023-02-08T05:14:59.529Z,29.35
2023-02-08T05:16:02.152Z,29.17
2023-02-08T05:17:04.807Z,28.92
2023-02-08T05:18:07.327Z,28.70
2023-02-08T05:19:11.520Z,29.17
2023-02-08T05:20:14.288Z,27.98
2023-02-08T05:21:16.812Z,26.27
2023-02-08T05:22:19.343Z,32.65
2023-02-08T05:23:21.849Z,29.90
2023-02-08T05:24:24.613Z,31.85
2023-02-08T05:25:27.255Z,31.25
2023-02-08T05:26:29.894Z,28.33
2023-02-08T05:27:34.335Z,35.65
2023-02-08T05:28:37.939Z,27.90
2023-02-08T05:29:40.698Z,28.98
2023-02-08T05:30:43.421Z,31.13
2023-02-08T05:31:46.309Z,32.58
2023-02-08T05:32:49.224Z,29.70
2023-02-08T05:33:52.946Z,34.45
2023-02-08T05:34:55.827Z,30.77
2023-02-08T05:35:58.468Z,27.23
2023-02-08T05:37:01.349Z,24.98
2023-02-08T05:38:04.118Z,25.52
2023-02-08T05:39:07.250Z,30.65
2023-02-08T05:40:11.326Z,32.28
2023-02-08T05:41:14.332Z,30.95
2023-02-08T05:42:17.438Z,23.75
2023-02-08T05:43:20.677Z,24.52
2023-02-08T05:44:23.809Z,31.45
2023-02-08T05:45:26.925Z,35.88
2023-02-08T05:46:30.199Z,27.42
2023-02-08T05:47:33.285Z,31.35
2023-02-08T05:48:36.526Z,37.72
2023-02-08T05:49:39.648Z,25.65
2023-02-08T05:50:43.369Z,26.83
2023-02-08T05:51:46.609Z,27.10
2023-02-08T05:52:49.731Z,30.30
2023-02-08T05:53:52.981Z,24.30
2023-02-08T05:54:56.096Z,28.92
2023-02-08T05:55:59.459Z,23.20
2023-02-08T05:57:02.817Z,26.70
2023-02-08T05:58:05.941Z,30.35
2023-02-08T05:59:10.629Z,27.92
2023-02-08T06:00:14.225Z,32.30
2023-02-08T06:01:20.349Z,27.95
2023-02-08T06:02:24.066Z,34.60
2023-02-08T06:03:27.786Z,31.05
2023-02-08T06:04:30.910Z,25.45
2023-02-08T06:05:34.868Z,31.17
2023-02-08T06:06:38.234Z,32.03
2023-02-08T06:07:41.354Z,25.08
2023-02-08T06:08:44.603Z,26.88
2023-02-08T06:09:48.657Z,30.88
2023-02-08T06:10:51.798Z,27.58
2023-02-08T06:11:55.040Z,26.05
2023-02-08T06:12:58.281Z,28.67
2023-02-08T06:14:01.284Z,28.08
2023-02-08T06:15:04.644Z,27.73
2023-02-08T06:16:08.312Z,24.58
2023-02-08T06:17:11.133Z,30.88
2023-02-08T06:18:13.772Z,31.95
2023-02-08T06:19:16.773Z,26.88
2023-02-08T06:20:19.780Z,22.75
2023-02-08T06:21:24.378Z,28.33
2023-02-08T06:22:27.342Z,33.20
2023-02-08T06:23:34.068Z,27.02
2023-02-08T06:24:36.582Z,29.48
2023-02-08T06:25:39.344Z,27.52
2023-02-08T06:26:41.916Z,25.38
2023-02-08T06:27:44.625Z,27.70
2023-02-08T06:28:47.314Z,26.80
2023-02-08T06:29:49.915Z,23.50
2023-02-08T06:30:52.958Z,28.10
2023-02-08T06:31:55.583Z,26.30
2023-02-08T06:32:58.195Z,24.95
2023-02-08T06:34:00.767Z,28.88
2023-02-08T06:35:03.727Z,29.67
2023-02-08T06:36:06.767Z,24.65
2023-02-08T06:37:09.282Z,24.83
2023-02-08T06:38:11.932Z,27.42
2023-02-08T06:39:14.449Z,24.65
2023-02-08T06:40:17.208Z,29.95
2023-02-08T06:41:19.858Z,25.85
2023-02-08T06:42:22.485Z,24.08
2023-02-08T06:43:25.094Z,26.63
2023-02-08T06:44:27.756Z,27.63
2023-02-08T06:45:30.436Z,23.98
2023-02-08T06:46:32.927Z,30.05
2023-02-08T06:47:35.571Z,26.92
2023-02-08T06:48:38.616Z,24.00
2023-02-08T06:49:41.811Z,26.42
2023-02-08T06:50:44.631Z,24.98
2023-02-08T06:51:47.212Z,27.83
2023-02-08T06:52:49.827Z,32.33
2023-02-08T06:53:52.497Z,28.98
2023-02-08T06:54:54.902Z,28.83
2023-02-08T06:55:57.552Z,36.47
2023-02-08T06:57:00.054Z,28.23
2023-02-08T06:58:02.588Z,28.45
2023-02-08T06:59:05.103Z,32.13
2023-02-08T07:00:08.366Z,31.58
2023-02-08T07:01:14.977Z,26.25
2023-02-08T07:02:20.155Z,24.02
2023-02-08T07:03:22.738Z,26.27
2023-02-08T07:04:25.515Z,23.88
2023-02-08T07:05:28.279Z,26.20
2023-02-08T07:06:30.901Z,25.95
2023-02-08T07:07:33.551Z,25.58
2023-02-08T07:08:36.064Z,27.00
2023-02-08T07:09:38.831Z,30.50
2023-02-08T07:10:41.616Z,28.02
2023-02-08T07:11:44.354Z,27.70
2023-02-08T07:12:46.999Z,26.05
2023-02-08T07:13:51.668Z,29.50
2023-02-08T07:14:54.194Z,28.48
2023-02-08T07:15:56.713Z,31.58
2023-02-08T07:16:59.514Z,30.38
2023-02-08T07:18:02.231Z,36.90
2023-02-08T07:19:04.755Z,29.65
2023-02-08T07:20:08.476Z,31.45
2023-02-08T07:21:11.981Z,30.70
2023-02-08T07:22:14.481Z,34.30
2023-02-08T07:23:17.010Z,38.33
2023-02-08T07:24:19.777Z,37.97
2023-02-08T07:25:22.766Z,35.13
2023-02-08T07:26:25.652Z,34.72
2023-02-08T07:27:28.295Z,39.20
2023-02-08T07:28:31.648Z,41.08
2023-02-08T07:29:34.773Z,35.53
2023-02-08T07:30:37.430Z,38.80
2023-02-08T07:31:39.940Z,40.03
2023-02-08T07:32:42.456Z,40.30
2023-02-08T07:33:45.465Z,41.75
2023-02-08T07:34:47.977Z,35.30
2023-02-08T07:35:50.861Z,35.95
2023-02-08T07:36:53.504Z,34.55
2023-02-08T07:37:56.273Z,36.17
2023-02-08T07:38:59.028Z,41.13
2023-02-08T07:40:01.788Z,38.60
2023-02-08T07:41:07.811Z,32.58
2023-02-08T07:42:11.031Z,30.98
2023-02-08T07:43:27.284Z,33.03
2023-02-08T07:44:35.035Z,33.70
2023-02-08T07:45:39.016Z,31.58
2023-02-08T07:46:42.606Z,30.65
2023-02-08T07:47:46.923Z,29.38
2023-02-08T07:48:50.524Z,31.52
2023-02-08T07:49:53.651Z,29.17
2023-02-08T07:50:56.776Z,30.50
2023-02-08T07:52:01.451Z,28.10
2023-02-08T07:53:04.575Z,28.60
2023-02-08T07:54:07.937Z,29.92
2023-02-08T07:55:12.144Z,29.73
2023-02-08T07:56:15.256Z,25.83
2023-02-08T07:57:21.622Z,25.15
2023-02-08T07:58:25.229Z,24.23
2023-02-08T07:59:28.345Z,24.95
2023-02-08T08:00:31.710Z,21.65
2023-02-08T08:01:34.840Z,23.83
2023-02-08T08:02:38.198Z,20.00
2023-02-08T08:03:41.342Z,22.40
2023-02-08T08:04:44.794Z,20.52
2023-02-08T08:05:48.917Z,18.00
2023-02-08T08:06:54.155Z,26.77
2023-02-08T08:07:57.277Z,23.50
2023-02-08T08:09:00.530Z,22.63
2023-02-08T08:10:04.727Z,25.88
2023-02-08T08:11:08.325Z,23.80
2023-02-08T08:12:11.565Z,22.40
2023-02-08T08:13:15.169Z,22.08
2023-02-08T08:14:18.291Z,21.63
2023-02-08T08:15:21.775Z,20.80
2023-02-08T08:16:25.262Z,20.13
2023-02-08T08:17:30.002Z,18.52
2023-02-08T08:18:33.537Z,21.42
2023-02-08T08:19:36.907Z,17.10
2023-02-08T08:20:40.375Z,19.23
2023-02-08T08:21:43.517Z,20.77
2023-02-08T08:22:46.272Z,19.13
2023-02-08T08:23:49.267Z,19.95
2023-02-08T08:24:52.147Z,17.33
2023-02-08T08:25:55.150Z,21.40
2023-02-08T08:26:58.271Z,23.52
2023-02-08T08:28:02.405Z,20.60
2023-02-08T08:29:06.835Z,17.23
2023-02-08T08:30:12.729Z,17.02
2023-02-08T08:31:21.390Z,19.20
2023-02-08T08:32:23.957Z,19.13
2023-02-08T08:33:26.598Z,21.63
2023-02-08T08:34:32.169Z,18.52
2023-02-08T08:35:35.245Z,20.77
2023-02-08T08:36:37.930Z,22.35
2023-02-08T08:37:40.540Z,21.55
2023-02-08T08:38:43.217Z,21.15
2023-02-08T08:39:45.818Z,19.98
2023-02-08T08:40:48.371Z,18.90
2023-02-08T08:41:51.015Z,23.27
2023-02-08T08:42:53.533Z,24.95
2023-02-08T08:43:56.293Z,20.13
2023-02-08T08:44:58.900Z,22.20
2023-02-08T08:46:01.867Z,24.95
2023-02-08T08:47:04.462Z,18.83
2023-02-08T08:48:07.306Z,16.75
2023-02-08T08:49:09.979Z,17.30
2023-02-08T08:50:12.588Z,19.45
2023-02-08T08:51:15.379Z,21.27
2023-02-08T08:52:17.900Z,17.77
2023-02-08T08:53:22.197Z,18.75
2023-02-08T08:54:24.832Z,21.92
2023-02-08T08:55:28.472Z,18.45
2023-02-08T08:56:32.310Z,18.67
2023-02-08T08:57:35.064Z,18.33
2023-02-08T08:58:37.708Z,15.90
2023-02-08T08:59:40.322Z,15.90
2023-02-08T09:00:43.181Z,20.70
2023-02-08T09:01:45.877Z,16.27
2023-02-08T09:02:48.649Z,21.30
2023-02-08T09:03:51.269Z,17.20
2023-02-08T09:04:53.912Z,19.88
2023-02-08T09:05:56.794Z,18.17
2023-02-08T09:06:59.425Z,19.88
2023-02-08T09:08:03.631Z,22.02
2023-02-08T09:09:06.514Z,17.80
2023-02-08T09:10:09.398Z,20.48
2023-02-08T09:11:15.399Z,20.48
2023-02-08T09:12:17.909Z,21.13
2023-02-08T09:13:21.918Z,16.70
2023-02-08T09:14:24.544Z,18.88
2023-02-08T09:15:27.044Z,21.27
2023-02-08T09:16:29.700Z,17.88
2023-02-08T09:17:32.237Z,23.42
2023-02-08T09:18:34.956Z,17.08
2023-02-08T09:19:37.712Z,19.13
2023-02-08T09:20:40.980Z,16.17
2023-02-08T09:21:45.670Z,19.52
2023-02-08T09:22:48.403Z,15.73
2023-02-08T09:23:51.049Z,14.40
2023-02-08T09:24:54.170Z,17.90
2023-02-08T09:25:56.559Z,15.60
2023-02-08T09:26:59.440Z,17.45
2023-02-08T09:28:02.205Z,17.90
2023-02-08T09:29:06.766Z,18.27
2023-02-08T09:30:09.888Z,15.88
2023-02-08T09:31:19.690Z,18.13
2023-02-08T09:32:23.223Z,16.33
2023-02-08T09:33:25.852Z,18.40
2023-02-08T09:34:28.613Z,16.15
2023-02-08T09:35:31.149Z,15.20
2023-02-08T09:36:36.315Z,16.25
2023-02-08T09:37:38.948Z,16.48
2023-02-08T09:38:42.422Z,17.35
2023-02-08T09:39:45.786Z,17.88
2023-02-08T09:41:03.672Z,15.57
2023-02-08T09:42:21.070Z,15.63
2023-02-08T09:44:01.646Z,18.17
2023-02-08T09:45:37.741Z,14.63
2023-02-08T09:46:45.724Z,14.10
2023-02-08T09:48:00.562Z,15.57
2023-02-08T09:49:08.605Z,18.52
2023-02-08T09:50:19.047Z,18.48
2023-02-08T09:51:29.364Z,17.55
2023-02-08T09:53:12.809Z,21.30
2023-02-08T09:54:29.132Z,14.25
2023-02-08T09:55:46.538Z,21.13
2023-02-08T09:56:50.617Z,13.70
2023-02-08T09:57:55.419Z,14.35
2023-02-08T09:59:01.192Z,15.13
2023-02-08T10:00:19.494Z,15.63
2023-02-08T10:01:27.102Z,14.57
2023-02-08T10:02:32.986Z,15.38
2023-02-08T10:03:42.827Z,15.80
2023-02-08T10:05:05.869Z,13.82
2023-02-08T10:06:13.318Z,15.57
2023-02-08T10:07:16.916Z,18.15
2023-02-08T10:08:20.273Z,15.52
2023-02-08T10:09:27.479Z,18.42
2023-02-08T10:10:43.029Z,15.77
2023-02-08T10:12:22.078Z,14.38
2023-02-08T10:14:20.531Z,15.52
2023-02-08T10:15:32.645Z,17.30
2023-02-08T10:16:48.132Z,15.55
2023-02-08T10:18:04.260Z,17.98
2023-02-08T10:19:22.692Z,14.55
2023-02-08T10:20:29.655Z,13.48
2023-02-08T10:21:50.298Z,14.95
2023-02-08T10:23:19.447Z,15.93
2023-02-08T10:25:11.181Z,15.27
2023-02-08T10:26:45.024Z,13.02
2023-02-08T10:28:24.311Z,12.73
2023-02-08T10:29:58.588Z,15.90
2023-02-08T10:31:39.185Z,13.10
2023-02-08T10:32:59.845Z,14.30
2023-02-08T10:34:19.479Z,14.32
2023-02-08T10:35:41.850Z,16.85
2023-02-08T10:36:44.802Z,13.90
2023-02-08T10:37:47.608Z,16.17
2023-02-08T10:38:53.862Z,15.60
2023-02-08T10:40:03.285Z,16.08
2023-02-08T10:41:07.896Z,19.17
2023-02-08T10:42:16.967Z,19.38
2023-02-08T10:43:35.572Z,15.98
2023-02-08T10:45:01.131Z,17.13
2023-02-08T10:46:24.931Z,15.20
2023-02-08T10:47:43.504Z,18.45
2023-02-08T10:49:19.305Z,15.32
2023-02-08T10:50:33.576Z,15.85
2023-02-08T10:51:37.302Z,17.35
2023-02-08T10:52:40.176Z,15.00
2023-02-08T10:53:43.057Z,14.88
2023-02-08T10:54:45.578Z,17.52
2023-02-08T10:55:49.185Z,14.20
2023-02-08T10:57:03.231Z,14.65
2023-02-08T10:58:07.300Z,13.23
2023-02-08T10:59:20.388Z,14.48
2023-02-08T11:00:28.426Z,15.60
2023-02-08T11:01:31.448Z,14.50
2023-02-08T11:02:39.712Z,12.00
2023-02-08T11:04:02.194Z,15.35
2023-02-08T11:05:12.466Z,13.52
2023-02-08T11:06:28.178Z,11.27
2023-02-08T11:07:34.039Z,15.55
2023-02-08T11:08:56.144Z,14.05
2023-02-08T11:11:19.429Z,12.02
2023-02-08T11:12:23.388Z,12.23
2023-02-08T11:13:51.951Z,10.85
2023-02-08T11:14:54.709Z,13.52
2023-02-08T11:16:00.518Z,11.80
2023-02-08T11:17:03.350Z,11.38
2023-02-08T11:18:07.446Z,12.27
2023-02-08T11:19:22.203Z,11.93
2023-02-08T11:20:36.865Z,13.77
2023-02-08T11:21:41.090Z,12.10
2023-02-08T11:22:45.958Z,10.80
2023-02-08T11:23:52.440Z,11.30
2023-02-08T11:25:07.685Z,10.48
2023-02-08T11:26:24.358Z,11.55
2023-02-08T11:27:26.761Z,11.00
2023-02-08T11:28:31.207Z,11.55
2023-02-08T11:29:33.733Z,11.20
2023-02-08T11:30:36.287Z,13.07
2023-02-08T11:31:40.760Z,9.45
2023-02-08T11:32:45.493Z,10.00
2023-02-08T11:34:01.691Z,14.73
2023-02-08T11:35:22.178Z,10.95
2023-02-08T11:36:24.985Z,11.00
2023-02-08T11:37:28.858Z,12.57
2023-02-08T11:38:34.819Z,12.88
2023-02-08T11:39:42.983Z,9.38
2023-02-08T11:40:46.464Z,12.82
2023-02-08T11:41:51.284Z,8.75
2023-02-08T11:42:54.268Z,10.10
2023-02-08T11:44:04.960Z,11.95
2023-02-08T11:46:11.480Z,10.15
2023-02-08T11:47:18.904Z,10.18
2023-02-08T11:49:00.877Z,10.98
2023-02-08T11:50:09.182Z,10.68
2023-02-08T11:51:23.802Z,12.93
2023-02-08T11:52:36.759Z,9.82
2023-02-08T11:53:41.804Z,10.68
2023-02-08T11:54:44.926Z,11.20
2023-02-08T11:56:07.249Z,8.98
2023-02-08T11:57:20.336Z,10.95
2023-02-08T11:58:26.110Z,10.00
2023-02-08T11:59:30.293Z,10.88
2023-02-08T12:00:35.943Z,10.65
2023-02-08T12:01:41.098Z,11.68
2023-02-08T12:02:46.619Z,9.15
2023-02-08T12:03:51.492Z,10.32
2023-02-08T12:04:54.665Z,9.65
2023-02-08T12:06:03.551Z,11.13
2023-02-08T12:07:25.155Z,10.18
2023-02-08T12:08:31.032Z,10.35
2023-02-08T12:09:55.156Z,9.45
2023-02-08T12:11:24.674Z,9.85
2023-02-08T12:12:36.815Z,10.82
2023-02-08T12:13:58.285Z,11.50
2023-02-08T12:15:22.706Z,10.48
2023-02-08T12:16:50.001Z,10.70
2023-02-08T12:18:14.493Z,7.75
2023-02-08T12:19:44.739Z,9.77
2023-02-08T12:20:51.493Z,11.27
2023-02-08T12:22:07.991Z,10.38
2023-02-08T12:23:33.933Z,9.20
2023-02-08T12:24:49.897Z,10.73
2023-02-08T12:26:14.151Z,9.82
2023-02-08T12:27:38.384Z,10.00
2023-02-08T12:29:45.689Z,11.50
2023-02-08T12:30:58.234Z,10.02
2023-02-08T12:32:21.944Z,10.68
2023-02-08T12:33:37.930Z,10.93
2023-02-08T12:35:37.398Z,8.27
2023-02-08T12:36:48.643Z,9.95
2023-02-08T12:38:37.433Z,10.93
2023-02-08T12:40:18.412Z,8.30
2023-02-08T12:41:23.687Z,9.68
2023-02-08T12:42:26.327Z,9.55
2023-02-08T12:44:07.750Z,7.68
2023-02-08T12:45:19.252Z,11.38
2023-02-08T12:46:33.776Z,9.35
2023-02-08T12:47:39.057Z,7.38
2023-02-08T12:49:00.177Z,7.85
2023-02-08T12:50:09.374Z,7.85
2023-02-08T12:51:36.180Z,10.52
2023-02-08T12:52:53.173Z,8.40
2023-02-08T12:54:04.498Z,6.97
2023-02-08T12:55:19.143Z,7.53
2023-02-08T12:56:30.661Z,6.95
2023-02-08T12:57:33.509Z,7.07
2023-02-08T12:58:46.255Z,8.73
2023-02-08T12:59:56.123Z,7.55
2023-02-08T13:01:08.444Z,7.05
2023-02-08T13:02:21.579Z,8.55
2023-02-08T13:03:43.148Z,9.52
2023-02-08T13:04:49.873Z,7.45
2023-02-08T13:06:02.108Z,7.68
2023-02-08T13:07:26.106Z,8.20
2023-02-08T13:08:50.104Z,7.05
2023-02-08T13:10:02.886Z,7.15
2023-02-08T13:11:19.814Z,7.70
2023-02-08T13:12:30.547Z,10.32
2023-02-08T13:13:39.198Z,8.63
2023-02-08T13:14:52.155Z,9.32
2023-02-08T13:16:03.460Z,7.15
2023-02-08T13:17:21.918Z,5.40
2023-02-08T13:18:33.321Z,6.85
2023-02-08T13:20:06.679Z,6.78
2023-02-08T13:21:20.737Z,6.90
2023-02-08T13:22:23.832Z,7.85
2023-02-08T13:23:52.115Z,6.38
2023-02-08T13:25:11.670Z,4.82
2023-02-08T13:26:27.797Z,6.93
2023-02-08T13:27:30.354Z,10.23
2023-02-08T13:28:33.057Z,6.28
2023-02-08T13:29:37.396Z,7.40
2023-02-08T13:30:40.832Z,7.03
2023-02-08T13:31:47.156Z,5.53
2023-02-08T13:32:51.810Z,8.77
2023-02-08T13:34:01.730Z,5.00
2023-02-08T13:35:17.851Z,5.35
2023-02-08T13:36:27.340Z,4.95
2023-02-08T13:37:32.863Z,7.05
2023-02-08T13:38:37.183Z,7.22
2023-02-08T13:39:43.196Z,5.20
2023-02-08T13:40:46.160Z,9.95
2023-02-08T13:41:54.464Z,5.50
2023-02-08T13:43:23.316Z,5.18
2023-02-08T13:44:35.991Z,4.90
2023-02-08T13:45:43.671Z,6.15
2023-02-08T13:46:48.959Z,5.55
2023-02-08T13:47:59.892Z,6.07
2023-02-08T13:49:03.113Z,4.85
2023-02-08T13:50:29.132Z,4.97
2023-02-08T13:51:31.801Z,3.92
2023-02-08T13:52:46.902Z,6.65
2023-02-08T13:53:53.294Z,5.55
2023-02-08T13:55:33.733Z,4.78
2023-02-08T13:56:45.606Z,5.75
2023-02-08T13:57:57.128Z,4.68
2023-02-08T13:59:01.340Z,5.38
2023-02-08T14:00:37.346Z,6.90
2023-02-08T14:02:12.512Z,5.75
2023-02-08T14:03:15.623Z,5.45
2023-02-08T14:04:32.186Z,7.20
2023-02-08T14:05:47.663Z,9.95
2023-02-08T14:06:57.265Z,5.18
2023-02-08T14:08:04.105Z,12.13
2023-02-08T14:09:20.547Z,8.57
2023-02-08T14:10:32.308Z,5.75
2023-02-08T14:11:54.397Z,5.03
2023-02-08T14:13:08.913Z,4.60
2023-02-08T14:14:31.713Z,6.18
2023-02-08T14:15:40.365Z,5.50
2023-02-08T14:16:47.917Z,4.60
2023-02-08T14:17:58.352Z,4.43
2023-02-08T14:19:05.205Z,6.95
2023-02-08T14:20:08.930Z,5.28
2023-02-08T14:21:34.008Z,6.18
2023-02-08T14:22:49.366Z,6.60
2023-02-08T14:24:01.257Z,3.63
2023-02-08T14:25:07.133Z,5.78
2023-02-08T14:26:24.376Z,4.25
2023-02-08T14:27:28.629Z,4.82
2023-02-08T14:28:35.699Z,5.18
2023-02-08T14:29:39.176Z,5.72
2023-02-08T14:30:43.113Z,6.20
2023-02-08T14:31:46.410Z,5.57
2023-02-08T14:32:54.666Z,13.98
2023-02-08T14:33:59.221Z,10.93
2023-02-08T14:35:21.309Z,7.10
2023-02-08T14:36:32.589Z,4.25
2023-02-08T14:37:36.907Z,5.88
2023-02-08T14:39:07.754Z,6.65
2023-02-08T14:40:24.798Z,6.47
2023-02-08T14:41:47.765Z,8.70
2023-02-08T14:42:59.838Z,4.50
2023-02-08T14:44:44.342Z,4.15
2023-02-08T14:45:55.093Z,5.47
2023-02-08T14:46:57.670Z,8.00
2023-02-08T14:48:07.581Z,5.97
2023-02-08T14:49:18.854Z,5.37